• Join FlightAware (Why Join?)
  • Login
  • US Flag 
02:07PM EDT


 

Airport Tracker/Info


-or-


 

Live Flight TrackerFlight Track Log ✈ CFS671 ✈ 28-Jun-2013 ✈ KLMT - KPDX

Flight Track Log - Related Links

Times and Time Zones

All times are in EDT time to prevent confusion due to time zone crossing. See the CFS671 flight status page for this flight to view local times or setup timezone preferences in your user account.

Time Position Orientation Groundspeed Altitude Reporting Facility
EDT Latitude Longitude Course Direction KTS MPH feet Rate Location/Type
07:31PM 42.3533 -121.8017 346° North 127 146 10,500  Level Seattle Center
07:32PM 42.3947 -121.8153 346° North 138 159 10,600  Climbing Seattle Center
07:33PM 42.4503 -121.8294 349° North 158 182 10,500 -60 Descending Seattle Center
07:34PM 42.4321 -121.8162 346° North  Level FlightAware Approximate
07:34PM 42.4961 -121.8422 348° North 164 189 10,500  Level Seattle Center
07:35PM 42.4778 -121.8315 346° North  Level FlightAware Approximate
07:35PM 42.5422 -121.8542 349° North 168 193 10,500  Level Seattle Center
07:36PM 42.5235 -121.8467 346° North  Level FlightAware Approximate
07:36PM 42.5875 -121.8669 348° North 167 192 10,500  Level Seattle Center
07:37PM 42.6314 -121.8797 348° North 165 190 10,500  Level Seattle Center
07:38PM 42.6764 -121.8931 348° North 165 190 10,500  Level Seattle Center
07:39PM 42.7214 -121.9061 348° North 167 192 10,500  Level Seattle Center
07:40PM 42.7656 -121.9175 349° North 164 189 10,500  Level Seattle Center
07:41PM 42.8078 -121.9303 347° North 161 185 10,500  Level Seattle Center
07:42PM 42.8519 -121.9425 349° North 161 185 10,600  Climbing Seattle Center
07:43PM 42.9028 -121.9597 346° North 157 181 10,600  Level Seattle Center
07:44PM 42.9464 -121.9714 349° North 159 183 10,600 -60 Level Seattle Center
07:45PM 42.9914 -121.9825 350° North 162 186 10,500  Descending Seattle Center
07:46PM 43.0356 -121.9953 348° North 162 186 10,600  Climbing Seattle Center
07:47PM 43.0808 -122.0094 347° North 165 190 10,500  Descending Seattle Center
07:48PM 43.1269 -122.0211 350° North 168 193 10,600  Climbing Seattle Center
07:49PM 43.1717 -122.0328 349° North 166 191 10,500 -60 Descending Seattle Center
07:50PM 43.2175 -122.0467 348° North 169 194 10,500  Level Seattle Center
07:51PM 43.2633 -122.0606 348° North 170 196 10,600  Climbing Seattle Center
07:52PM 43.3122 -122.0753 348° North 168 193 10,500  Descending Seattle Center
07:53PM 43.3567 -122.0886 348° North 164 189 10,600  Climbing Seattle Center
07:54PM 43.4033 -122.1006 349° North 169 194 10,600  Level Seattle Center
07:55PM 43.4486 -122.1156 346° North 168 193 10,600 -60 Level Seattle Center
07:56PM 43.4958 -122.1292 348° North 172 198 10,500  Descending Seattle Center
07:57PM 43.5389 -122.1428 347° North 161 185 10,600  Climbing Seattle Center
07:58PM 43.5944 -122.1586 348° North 168 193 10,500 -60 Descending Seattle Center
07:59PM 43.6417 -122.1725 348° North 172 198 10,500  Level Seattle Center
08:00PM 43.6931 -122.1842 351° North 183 211 10,500  Level Seattle Center
08:01PM 43.7419 -122.1972 349° North 182 209 10,500  Level Seattle Center
08:02PM 43.7906 -122.2119 348° North 180 207 10,500 -60 Level Seattle Center
08:03PM 43.8408 -122.2267 348° North 184 212 10,400 -60 Descending Seattle Center
08:04PM 43.8903 -122.2414 348° North 183 211 10,400  Level Seattle Center
08:05PM 43.9378 -122.2550 348° North 179 206 10,500  Climbing Seattle Center
08:06PM 43.9831 -122.2694 347° North 170 196 10,400 -60 Descending Seattle Center
08:07PM 44.0389 -122.2864 348° North 170 196 10,400  Level Seattle Center
08:08PM 44.0867 -122.3003 348° North 175 201 10,500  Climbing Seattle Center
08:09PM 44.1336 -122.3142 348° North 173 199 10,500  Level Seattle Center
08:10PM 44.1817 -122.3286 348° North 176 203 10,600  Climbing Seattle Center
08:11PM 44.2292 -122.3425 348° North 177 204 10,600 -60 Level Seattle Center
08:12PM 44.2789 -122.3583 347° North 181 208 10,500  Descending Seattle Center
08:13PM 44.3281 -122.3722 349° North 181 208 10,600  Climbing Seattle Center
08:14PM 44.3786 -122.3886 347° North 186 214 10,600  Level Seattle Center
08:15PM 44.4289 -122.4031 348° North 186 214 10,600  Level Seattle Center
08:16PM 44.4797 -122.4186 348° North 187 215 10,600 -60 Level Seattle Center
08:17PM 44.5408 -122.4367 348° North 189 217 10,500  Descending Seattle Center
08:19PM 44.5908 -122.4525 347° North 186 214 10,600  Climbing Seattle Center
08:20PM 44.6408 -122.4669 348° North 186 214 10,600  Level Seattle Center
08:21PM 44.6911 -122.4831 347° North 186 214 10,600  Level Seattle Center
08:21PM 44.7372 -122.4989 346° North 186 214 10,600  Level Seattle Center
08:22PM 44.7806 -122.5089 351° North 185 213 10,600  Level Seattle Center
08:23PM 44.8294 -122.5256 346° North 186 214 10,600 -240 Level Seattle Center
08:24PM 44.8825 -122.5408 348° North 192 221 10,200 -540 Descending Seattle Center
08:25PM 44.9397 -122.5450 357° North 211 243 9,600 -660 Descending Seattle Center
08:26PM 44.9969 -122.5494 357° North 208 239 8,900 -900 Descending Seattle Center
08:27PM 45.0586 -122.5547 357° North 204 235 7,800 -1,020 Descending Seattle Center
08:28PM 45.1133 -122.5572 358° North 198 228 6,900 -900 Descending Seattle Center
08:29PM 45.1711 -122.5642 355° North 189 217 6,000 -900 Descending Seattle Center
08:30PM 45.2219 -122.5681 357° North 187 215 5,100 -840 Descending Seattle Center
08:31PM 45.2750 -122.5742 355° North 176 203 4,300 -720 Descending Seattle Center
08:32PM 45.3144 -122.5764 358° North 169 194 3,800 -600 Descending Seattle Center
08:34PM 45.3664 -122.5861 353° North 166 191 3,100 -480 Descending Seattle Center
08:34PM 45.4094 -122.5961 351° North 167 192 2,900 -420 Descending Seattle Center
08:35PM 45.4539 -122.6119 346° North 162 186 2,300 -480 Descending Seattle Center
08:36PM 45.4939 -122.6386 335° Northwest 160 184 2,000 -360 Descending Seattle Center
08:38PM 45.5372 -122.6703 333° Northwest 148 170 1,600 -600 Descending Seattle Center
08:38PM 45.5608 -122.6483 33° Northeast 106 122 800 -780 Descending Seattle Center
08:39PM 45.5794 -122.6222 44° Northeast 85 98 200 -600 Descending Seattle Center
08:41PM 45.5887 -122.5969 21° North  Level Estimated